Time;durP1;ratioP1;P1;durP2;ratioP2;P2;SDS_P1;SDS_P2;PMS_P1;PMS_P2;Temp;Humidity;BMP_temperature;BMP_pressure;BME280_temperature;BME280_humidity;BME280_pressure;Samples;Min_cycle;Max_cycle;Signal;HPM_P1;HPM_P2
2022/07/09 00:02:13;;;;;;;6.03;1.60;;;;;;;-145.69;100.00;72558.66;5053930;28;20685;-82
2022/07/09 00:04:40;;;;;;;6.67;1.93;;;;;;;-145.69;100.00;72556.69;5053699;28;20199;-82
2022/07/09 00:07:06;;;;;;;6.37;1.97;;;;;;;-145.69;100.00;72556.69;5053461;28;20207;-82
2022/07/09 00:09:33;;;;;;;9.83;2.07;;;;;;;-145.69;100.00;72552.69;5053524;28;20263;-81
2022/07/09 00:12:00;;;;;;;3.07;1.80;;;;;;;-145.69;100.00;72560.66;5053787;28;20206;-81
2022/07/09 00:14:27;;;;;;;5.40;2.20;;;;;;;-145.69;100.00;72556.69;5053450;28;20210;-81
2022/07/09 00:16:53;;;;;;;6.80;2.00;;;;;;;-145.69;100.00;72556.69;5053322;28;20226;-81
2022/07/09 00:19:22;;;;;;;5.73;2.00;;;;;;;-145.69;100.00;72534.78;5053494;28;20211;-81
2022/07/09 00:21:49;;;;;;;2.93;1.67;;;;;;;-145.69;100.00;72532.78;5053395;28;20200;-81
2022/07/09 00:24:15;;;;;;;6.67;2.03;;;;;;;-145.69;100.00;72530.81;5053387;28;20218;-80
2022/07/09 00:26:42;;;;;;;6.27;2.10;;;;;;;-145.69;100.00;72520.84;5053201;28;20199;-80
2022/07/09 00:29:10;;;;;;;3.60;1.97;;;;;;;-145.69;100.00;72520.84;5052441;28;20226;-79
2022/07/09 00:31:36;;;;;;;9.30;2.27;;;;;;;-145.69;100.00;72536.78;5053204;28;20203;-81
2022/07/09 00:34:03;;;;;;;6.05;2.17;;;;;;;-145.69;100.00;72542.75;5052074;28;20427;-80
2022/07/09 00:36:29;;;;;;;3.63;2.13;;;;;;;-145.69;100.00;72536.78;5053052;28;20207;-80
2022/07/09 00:38:57;;;;;;;5.43;1.90;;;;;;;-145.69;100.00;72538.78;5065090;28;20673;-81
2022/07/09 00:41:25;;;;;;;6.83;2.10;;;;;;;-145.69;100.00;72536.78;5073050;28;20289;-81
2022/07/09 00:43:57;;;;;;;4.17;1.90;;;;;;;-145.69;100.00;72528.81;5055270;28;20286;-81
2022/07/09 00:46:29;;;;;;;5.03;2.20;;;;;;;-145.69;100.00;72544.75;5052963;28;20210;-81
2022/07/09 00:49:03;;;;;;;4.47;2.17;;;;;;;-145.69;100.00;72548.72;5052191;28;20246;-81
2022/07/09 00:51:34;;;;;;;10.20;2.23;;;;;;;-145.69;100.00;72546.72;5052917;28;20208;-82
2022/07/09 00:54:05;;;;;;;2.90;1.80;;;;;;;-145.69;100.00;72546.72;5053092;28;20619;-82
2022/07/09 00:56:32;;;;;;;3.37;2.10;;;;;;;-145.69;100.00;72544.75;5052956;28;20605;-82
2022/07/09 00:59:07;;;;;;;3.37;1.90;;;;;;;-145.69;100.00;72544.75;5052686;28;20207;-82
2022/07/09 01:01:38;;;;;;;5.40;2.13;;;;;;;-145.69;100.00;72546.72;5052103;28;20444;-82
2022/07/09 01:04:09;;;;;;;8.60;2.43;;;;;;;-145.69;100.00;72558.66;5053142;28;20281;-81
2022/07/09 01:06:37;;;;;;;4.80;2.00;;;;;;;-145.69;100.00;72558.66;5052934;28;20238;-80
2022/07/09 01:09:07;;;;;;;5.37;1.93;;;;;;;-145.69;100.00;72556.69;5052585;28;20633;-81
2022/07/09 01:11:33;;;;;;;6.18;2.15;;;;;;;-145.69;100.00;72552.69;5051883;28;20435;-80
2022/07/09 01:14:02;;;;;;;4.13;1.90;;;;;;;-145.69;100.00;72548.72;5052540;28;20650;-81
2022/07/09 01:16:32;;;;;;;5.50;2.47;;;;;;;-145.69;100.00;72538.78;5052689;28;20207;-81
2022/07/09 01:19:00;;;;;;;3.37;1.60;;;;;;;-145.69;100.00;72540.75;5052730;28;20210;-82
2022/07/09 01:21:28;;;;;;;7.30;2.37;;;;;;;-145.69;100.00;72536.78;5052697;28;20539;-81
2022/07/09 01:23:55;;;;;;;6.10;2.17;;;;;;;-145.69;100.00;72532.78;5052527;28;20203;-82
2022/07/09 01:26:22;;;;;;;8.57;1.97;;;;;;;-145.69;100.00;72532.78;5052013;28;20210;-82
2022/07/09 01:28:49;;;;;;;4.23;2.00;;;;;;;-145.69;100.00;72514.88;5052739;28;20196;-82
2022/07/09 01:31:16;;;;;;;3.40;2.10;;;;;;;-145.69;100.00;72526.81;5055345;28;20715;-82
2022/07/09 01:33:43;;;;;;;7.53;2.13;;;;;;;-145.69;100.00;72528.81;5072412;28;20206;-82
2022/07/09 01:36:09;;;;;;;5.07;2.03;;;;;;;-145.69;100.00;72532.78;5072518;28;20293;-81
2022/07/09 01:38:37;;;;;;;9.03;2.10;;;;;;;-145.69;100.00;72546.72;5072320;28;20661;-81
2022/07/09 01:41:04;;;;;;;4.93;2.10;;;;;;;-145.69;100.00;72554.69;5072483;28;20301;-82
2022/07/09 01:43:33;;;;;;;6.93;1.90;;;;;;;-145.69;100.00;72560.66;5076180;28;20707;-82
2022/07/09 01:46:01;;;;;;;5.90;2.40;;;;;;;-145.69;100.00;72572.59;5076247;28;20617;-82
2022/07/09 01:48:28;;;;;;;7.07;2.20;;;;;;;-145.69;100.00;72590.53;5076058;28;20412;-82
2022/07/09 01:50:55;;;;;;;11.17;2.70;;;;;;;-145.69;100.00;72588.53;5075990;28;20691;-83
2022/07/09 01:53:22;;;;;;;5.40;2.30;;;;;;;-145.69;100.00;72574.59;5075942;28;20198;-82
2022/07/09 01:55:49;;;;;;;4.67;2.30;;;;;;;-145.69;100.00;72584.56;5076386;28;20204;-82
2022/07/09 01:58:16;;;;;;;6.97;2.23;;;;;;;-145.69;100.00;72578.56;5076214;28;20598;-82
2022/07/09 02:00:43;;;;;;;5.47;2.30;;;;;;;-145.69;100.00;72582.56;5076193;28;20259;-81
2022/07/09 02:03:09;;;;;;;5.30;2.27;;;;;;;-145.69;100.00;72568.63;5075803;28;20654;-82
2022/07/09 02:05:36;;;;;;;10.93;2.40;;;;;;;-145.69;100.00;72568.63;5076097;28;20665;-82
2022/07/09 02:08:03;;;;;;;6.40;2.10;;;;;;;-145.69;100.00;72568.63;5075801;28;20203;-82
2022/07/09 02:10:30;;;;;;;5.50;2.40;;;;;;;-145.69;100.00;72572.59;5075887;28;20227;-82
2022/07/09 02:12:58;;;;;;;6.67;2.33;;;;;;;-145.69;100.00;72564.66;5075536;28;20228;-82
2022/07/09 02:15:25;;;;;;;7.53;2.43;;;;;;;-145.69;100.00;72556.69;5075851;28;20202;-82
2022/07/09 02:17:51;;;;;;;6.20;2.37;;;;;;;-145.69;100.00;72550.72;5075960;28;20729;-81
2022/07/09 02:20:18;;;;;;;5.57;2.17;;;;;;;-145.69;100.00;72548.72;5075410;28;20728;-82
2022/07/09 02:22:44;;;;;;;3.53;2.10;;;;;;;-145.69;100.00;72552.69;5075319;28;20222;-82
2022/07/09 02:25:11;;;;;;;6.65;2.40;;;;;;;-145.69;100.00;72562.66;5075073;28;20533;-80
2022/07/09 02:27:37;;;;;;;5.70;2.00;;;;;;;-145.69;100.00;72562.66;5075845;28;20206;-80
2022/07/09 02:30:07;;;;;;;7.37;2.53;;;;;;;-145.69;100.00;72548.72;5075271;28;20273;-81
2022/07/09 02:32:33;;;;;;;3.87;1.90;;;;;;;-145.69;100.00;72544.75;5075647;28;20209;-81
2022/07/09 02:35:00;;;;;;;5.43;2.20;;;;;;;-145.69;100.00;72558.66;5075135;28;20261;-82
2022/07/09 02:37:26;;;;;;;5.80;2.00;;;;;;;-145.69;100.00;72568.63;5075474;28;20293;-80
2022/07/09 02:39:53;;;;;;;6.43;2.70;;;;;;;-145.69;100.00;72584.56;5055393;28;20290;-81
2022/07/09 02:42:20;;;;;;;7.57;2.30;;;;;;;-145.69;100.00;72588.53;5055304;28;20266;-81
2022/07/09 02:44:46;;;;;;;3.87;2.10;;;;;;;-145.69;100.00;72592.50;5055099;28;20295;-80
2022/07/09 02:47:14;;;;;;;10.87;2.13;;;;;;;-145.69;100.00;72588.53;5057896;28;20200;-79
2022/07/09 02:49:41;;;;;;;7.87;2.47;;;;;;;-145.69;100.00;72592.50;5074843;28;20751;-80
2022/07/09 02:52:10;;;;;;;9.33;2.70;;;;;;;-145.69;100.00;72610.44;5073944;28;20617;-80
2022/07/09 02:54:37;;;;;;;5.30;2.55;;;;;;;-145.69;100.00;72616.41;5074396;28;20438;-80
2022/07/09 02:57:08;;;;;;;7.60;2.43;;;;;;;-145.69;100.00;72618.38;5075157;28;20234;-80
2022/07/09 02:59:34;;;;;;;5.13;2.30;;;;;;;-145.69;100.00;72616.41;5074847;28;20295;-80
2022/07/09 03:02:03;;;;;;;8.40;2.30;;;;;;;-145.69;100.00;72620.38;5075030;28;20294;-80
2022/07/09 03:04:36;;;;;;;7.00;2.57;;;;;;;-145.69;100.00;72620.38;5074501;28;20263;-80
2022/07/09 03:07:03;;;;;;;7.27;2.50;;;;;;;-145.69;100.00;72632.31;5074884;28;20731;-81
2022/07/09 03:09:30;;;;;;;7.80;2.50;;;;;;;-145.69;100.00;72616.41;5075270;28;20290;-80
2022/07/09 03:11:57;;;;;;;4.90;2.77;;;;;;;-145.69;100.00;72644.25;5074650;28;20252;-81
2022/07/09 03:14:28;;;;;;;4.30;2.47;;;;;;;-145.69;100.00;72658.19;5074230;28;20723;-80
2022/07/09 03:16:55;;;;;;;6.30;2.57;;;;;;;-145.69;100.00;72658.19;5074756;28;20203;-80
2022/07/09 03:19:22;;;;;;;7.80;3.23;;;;;;;-145.69;100.00;72638.28;5076012;28;20249;-80
2022/07/09 03:21:50;;;;;;;5.80;2.50;;;;;;;-145.69;100.00;72624.34;5074104;28;20289;-80
2022/07/09 03:24:16;;;;;;;10.87;2.80;;;;;;;-145.69;100.00;72620.38;5074436;28;20202;-81
2022/07/09 03:26:43;;;;;;;5.00;2.47;;;;;;;-145.69;100.00;72616.41;5074443;28;20621;-81
2022/07/09 03:29:09;;;;;;;4.97;2.33;;;;;;;-145.69;100.00;72640.28;5074420;28;20745;-80
2022/07/09 03:31:36;;;;;;;8.93;3.20;;;;;;;-145.69;100.00;72636.31;5074292;28;20250;-81
2022/07/09 03:34:03;;;;;;;5.40;2.50;;;;;;;-145.69;100.00;72624.34;5074447;28;20199;-80
2022/07/09 03:36:30;;;;;;;4.37;2.50;;;;;;;-145.69;100.00;72624.34;5074127;28;20681;-80
2022/07/09 03:38:58;;;;;;;6.27;2.87;;;;;;;-145.69;100.00;72616.41;5073986;28;20287;-80
2022/07/09 03:41:25;;;;;;;6.35;2.70;;;;;;;-145.69;100.00;72632.31;5073732;28;20477;-80
2022/07/09 03:43:53;;;;;;;11.53;2.70;;;;;;;-145.69;100.00;72640.28;5074221;28;20291;-80
2022/07/09 03:46:23;;;;;;;6.50;2.40;;;;;;;-145.69;100.00;72644.25;5074043;28;20203;-80
2022/07/09 03:48:50;;;;;;;4.10;2.27;;;;;;;-145.69;100.00;72654.22;5073425;28;20241;-81
2022/07/09 03:51:19;;;;;;;7.13;2.70;;;;;;;-145.69;100.00;72662.19;5074026;28;20309;-81
2022/07/09 03:53:46;;;;;;;5.53;2.37;;;;;;;-145.69;100.00;72670.13;5074138;28;20281;-81
2022/07/09 03:56:14;;;;;;;8.57;2.60;;;;;;;-145.69;100.00;72680.09;5073707;28;20226;-81
2022/07/09 03:58:43;;;;;;;6.50;2.30;;;;;;;-145.69;100.00;72684.06;5073610;28;20198;-81
2022/07/09 04:01:12;;;;;;;12.03;3.30;;;;;;;-145.69;100.00;72666.16;5073936;28;20210;-81
2022/07/09 04:03:39;;;;;;;8.70;2.67;;;;;;;-145.69;100.00;72674.13;5073440;28;20194;-81
2022/07/09 04:06:06;;;;;;;7.23;2.70;;;;;;;-145.69;100.00;72672.13;5073670;28;20205;-81
2022/07/09 04:08:33;;;;;;;8.23;2.90;;;;;;;-145.69;100.00;72656.22;5073521;28;20719;-81
2022/07/09 04:11:00;;;;;;;13.63;2.90;;;;;;;-145.69;100.00;72668.16;5073038;28;20731;-81
2022/07/09 04:13:29;;;;;;;5.33;2.63;;;;;;;-145.69;100.00;72670.13;5073604;28;20195;-80
2022/07/09 04:15:58;;;;;;;6.30;2.70;;;;;;;-145.69;100.00;72672.13;5072865;28;20289;-81
2022/07/09 04:18:25;;;;;;;8.47;2.83;;;;;;;-145.69;100.00;72672.13;5073576;28;20237;-81
2022/07/09 04:20:56;;;;;;;7.37;2.60;;;;;;;-145.69;100.00;72676.09;5073601;28;20214;-82
2022/07/09 04:23:23;;;;;;;5.10;2.30;;;;;;;-145.69;100.00;72676.09;5073166;28;20322;-81
2022/07/09 04:25:50;;;;;;;8.43;2.93;;;;;;;-145.69;100.00;72660.19;5073344;28;20294;-80
2022/07/09 04:28:17;;;;;;;9.73;3.30;;;;;;;-145.69;100.00;72646.25;5073268;28;20199;-81
2022/07/09 04:30:45;;;;;;;7.50;3.00;;;;;;;-145.69;100.00;72628.34;5073313;28;20227;-81
2022/07/09 04:33:11;;;;;;;4.93;2.30;;;;;;;-145.69;100.00;72632.31;5072881;28;20207;-81
2022/07/09 04:35:41;;;;;;;5.10;2.53;;;;;;;-145.69;100.00;72632.31;5073096;28;20665;-81
2022/07/09 04:38:10;;;;;;;5.20;2.37;;;;;;;-145.69;100.00;72636.31;5072973;28;20223;-81
2022/07/09 04:40:38;;;;;;;9.10;2.77;;;;;;;-145.69;100.00;72632.31;5073122;28;20199;-82
2022/07/09 04:43:05;;;;;;;6.37;2.57;;;;;;;-145.69;100.00;72624.34;5073135;28;20210;-81
2022/07/09 04:45:32;;;;;;;4.63;2.20;;;;;;;-145.69;100.00;72616.41;5073244;28;20199;-81
2022/07/09 04:48:07;;;;;;;8.60;2.43;;;;;;;-145.69;100.00;72604.44;5072601;28;20672;-81
2022/07/09 04:50:33;;;;;;;5.63;2.47;;;;;;;-145.69;100.00;72588.53;5072424;28;20245;-81
2022/07/09 04:53:02;;;;;;;4.97;2.20;;;;;;;-145.69;100.00;72572.59;5070265;28;20203;-81
2022/07/09 04:55:29;;;;;;;5.80;2.43;;;;;;;-145.69;100.00;72560.66;5073107;28;20202;-81
2022/07/09 04:57:56;;;;;;;11.27;2.50;;;;;;;-145.69;100.00;72544.75;5073068;28;20203;-81
2022/07/09 05:00:22;;;;;;;5.53;1.77;;;;;;;-145.69;100.00;72530.81;5072628;28;20288;-81
2022/07/09 05:02:49;;;;;;;7.87;2.50;;;;;;;-145.69;100.00;72506.91;5072568;28;20209;-80
2022/07/09 05:05:21;;;;;;;3.03;1.90;;;;;;;-145.69;100.00;72485.03;5072708;28;20213;-81
2022/07/09 05:07:48;;;;;;;9.00;2.53;;;;;;;-145.69;100.00;72463.13;5072810;28;20218;-80
2022/07/09 05:10:15;;;;;;;6.67;2.33;;;;;;;-145.69;100.00;72441.25;5072602;28;20649;-81
2022/07/09 05:12:44;;;;;;;2.77;1.60;;;;;;;-145.69;100.00;72425.31;5072696;28;20252;-81
2022/07/09 05:15:11;;;;;;;5.63;2.03;;;;;;;-145.69;100.00;72411.38;5072111;28;20202;-81
2022/07/09 05:17:38;;;;;;;4.83;1.93;;;;;;;-145.69;100.00;72397.44;5072547;28;20653;-81
2022/07/09 05:20:06;;;;;;;8.03;2.27;;;;;;;-145.69;100.00;72379.53;5072130;28;20657;-81
2022/07/09 05:22:38;;;;;;;5.57;2.23;;;;;;;-145.69;100.00;72371.56;5072700;28;20256;-81
2022/07/09 05:25:06;;;;;;;5.87;2.13;;;;;;;-145.69;100.00;72357.66;5072590;28;20675;-82
2022/07/09 05:27:33;;;;;;;6.25;1.90;;;;;;;-145.69;100.00;72337.75;5071307;28;20473;-81
2022/07/09 05:29:59;;;;;;;4.57;1.93;;;;;;;-145.69;100.00;72329.78;5072045;28;20549;-81
2022/07/09 05:32:32;;;;;;;7.20;1.93;;;;;;;-145.69;100.00;72311.88;5072310;28;20576;-81
2022/07/09 05:34:58;;;;;;;5.22;1.77;;;;;;;-145.69;100.00;72282.00;5072135;28;20434;-81
2022/07/09 05:37:25;;;;;;;3.97;2.20;;;;;;;-145.69;100.00;72248.19;5072040;28;20210;-81
2022/07/09 05:39:53;;;;;;;5.27;1.70;;;;;;;-145.69;100.00;72226.28;5072467;28;20195;-82
2022/07/09 05:42:19;;;;;;;4.15;1.77;;;;;;;-145.69;100.00;72222.31;5072460;28;20202;-82
2022/07/09 05:44:46;;;;;;;4.37;1.57;;;;;;;-145.69;100.00;72180.50;5072184;28;20198;-81
2022/07/09 05:47:12;;;;;;;5.25;1.58;;;;;;;-145.69;100.00;72110.84;5072104;28;20203;-82
2022/07/09 05:49:39;;;;;;;1.80;1.30;;;;;;;-145.69;99.52;71983.47;5072259;28;20692;-82
2022/07/09 05:52:06;;;;;;;4.00;1.50;;;;;;;-145.69;90.18;71864.06;5072387;28;20253;-82
2022/07/09 05:54:33;;;;;;;2.78;1.10;;;;;;;-145.69;83.65;71732.72;5072184;28;20195;-82
2022/07/09 05:57:01;;;;;;;2.92;1.15;;;;;;;-145.69;74.62;71609.34;5072268;28;20195;-82
2022/07/09 05:59:30;;;;;;;2.88;1.00;;;;;;;-145.69;68.69;71489.94;5071906;28;20202;-82
2022/07/09 06:01:56;;;;;;;2.15;1.08;;;;;;;-145.69;63.89;71390.47;5072413;28;20267;-82
2022/07/09 06:04:23;;;;;;;2.70;1.00;;;;;;;-145.69;60.86;71322.81;5071909;28;20207;-82
2022/07/09 06:06:51;;;;;;;3.20;0.88;;;;;;;-145.69;57.51;71231.28;5071047;28;20439;-82
2022/07/09 06:09:18;;;;;;;3.95;1.00;;;;;;;-145.69;55.92;71267.09;5072319;28;20203;-80
2022/07/09 06:11:45;;;;;;;3.60;1.17;;;;;;;-145.69;58.72;71330.75;5072154;28;20230;-80
2022/07/09 06:14:12;;;;;;;3.40;1.05;;;;;;;-145.69;58.20;71342.69;5071653;28;20487;-80
2022/07/09 06:16:39;;;;;;;5.70;0.80;;;;;;;-145.69;58.52;71342.69;5072201;28;20199;-80
2022/07/09 06:19:06;;;;;;;2.33;0.70;;;;;;;-145.69;59.47;71378.50;5072102;28;20211;-80
2022/07/09 06:21:32;;;;;;;2.35;0.90;;;;;;;-145.69;61.75;71515.81;5071916;28;20206;-80
2022/07/09 06:23:59;;;;;;;5.10;1.20;;;;;;;-145.69;64.53;71470.06;5072133;28;20641;-80
2022/07/09 06:29:12;;;;;;;3.78;1.10;;;;;;;-145.69;53.80;71358.63;5074256;28;20206;-81
2022/07/09 06:31:40;;;;;;;4.68;0.90;;;;;;;-145.69;53.38;71374.53;5075402;28;20231;-80
2022/07/09 06:34:07;;;;;;;3.50;0.85;;;;;;;-145.69;54.51;71388.47;5075258;28;20214;-81
2022/07/09 06:36:33;;;;;;;4.22;1.00;;;;;;;-145.69;56.16;71374.53;5076521;28;20290;-79
2022/07/09 06:41:48;;;;;;;3.42;0.80;;;;;;;-145.69;50.34;71314.84;5075188;28;20301;-80
2022/07/09 06:44:14;;;;;;;4.32;1.00;;;;;;;-145.69;54.55;71356.63;5075375;28;20220;-80
2022/07/09 06:46:44;;;;;;;4.60;1.10;;;;;;;-145.69;54.03;71330.75;5075196;28;20226;-80
2022/07/09 06:49:13;;;;;;;4.32;0.80;;;;;;;-145.69;57.66;71324.78;5074977;28;20325;-80
2022/07/09 06:51:39;;;;;;;3.28;0.93;;;;;;;-145.69;55.57;71306.88;5074738;28;20256;-80
2022/07/09 06:54:06;;;;;;;3.88;0.88;;;;;;;-145.69;60.15;71332.75;5075191;28;20199;-80
2022/07/09 06:56:41;;;;;;;2.95;1.05;;;;;;;-145.69;59.54;71314.84;5071391;28;20210;-80
2022/07/09 06:59:09;;;;;;;4.25;1.10;;;;;;;-145.69;60.46;71380.50;5054936;28;20227;-80
2022/07/09 07:01:39;;;;;;;6.00;1.00;;;;;;;-145.69;60.17;71408.38;5054833;28;20253;-79
2022/07/09 07:04:11;;;;;;;4.90;0.90;;;;;;;-145.69;55.61;71406.38;5055000;28;20245;-82
2022/07/09 07:06:38;;;;;;;3.35;1.15;;;;;;;-145.69;65.21;71446.16;5054873;28;20196;-82
2022/07/09 07:09:07;;;;;;;7.60;1.17;;;;;;;-145.69;57.63;71430.25;5054736;28;20203;-82
2022/07/09 07:11:36;;;;;;;6.22;1.23;;;;;;;-145.69;60.80;71446.16;5054187;28;20317;-81
2022/07/09 07:14:02;;;;;;;5.05;1.10;;;;;;;-145.69;61.01;71430.25;5054489;28;20238;-81
2022/07/09 07:16:31;;;;;;;7.15;1.27;;;;;;;-145.69;55.68;71434.22;5054622;28;20290;-81
2022/07/09 07:18:57;;;;;;;3.60;1.15;;;;;;;-145.69;67.03;71446.16;5054758;28;20211;-81
2022/07/09 07:21:28;;;;;;;13.43;1.30;;;;;;;-145.69;60.85;71430.25;5054748;28;20286;-81
2022/07/09 07:23:55;;;;;;;5.90;1.33;;;;;;;-145.69;61.96;71444.19;5053627;28;20471;-81
2022/07/09 07:26:24;;;;;;;3.42;1.20;;;;;;;-145.69;59.86;71442.19;5054097;28;20200;-81
2022/07/09 07:28:54;;;;;;;4.57;1.30;;;;;;;-145.69;60.00;71428.25;5054278;28;20296;-80
2022/07/09 07:31:22;;;;;;;11.55;1.50;;;;;;;-145.69;64.28;71436.22;5054535;28;20230;-81
2022/07/09 07:33:54;;;;;;;4.43;1.48;;;;;;;-145.69;60.54;71430.25;5054447;28;20199;-81
2022/07/09 07:36:20;;;;;;;4.38;1.25;;;;;;;-145.69;60.71;71402.41;5054098;28;20203;-82
2022/07/09 07:38:52;;;;;;;4.28;1.17;;;;;;;-145.69;59.44;71414.34;5064692;28;20195;-81
2022/07/09 07:41:19;;;;;;;5.82;1.58;;;;;;;-145.69;61.15;71406.38;5074175;28;20302;-80
2022/07/09 07:43:45;;;;;;;4.55;1.02;;;;;;;-145.69;62.39;71418.31;5073940;28;20206;-80
2022/07/09 07:46:12;;;;;;;4.82;1.30;;;;;;;-145.69;60.58;71398.41;5062796;28;20207;-79
2022/07/09 07:48:40;;;;;;;3.80;1.65;;;;;;;-145.69;63.62;71418.31;5053964;28;20230;-79
2022/07/09 07:51:08;;;;;;;8.20;1.60;;;;;;;-145.69;59.59;71444.19;5054074;28;20203;-80
2022/07/09 07:53:35;;;;;;;6.40;1.35;;;;;;;-145.69;59.64;71392.44;5053934;28;20242;-80
2022/07/09 07:56:03;;;;;;;4.68;1.27;;;;;;;-145.69;57.59;71358.63;5053417;28;20214;-81
2022/07/09 07:58:30;;;;;;;5.07;1.23;;;;;;;-145.69;55.13;71346.69;5053395;28;20487;-81
2022/07/09 08:00:56;;;;;;;7.38;1.35;;;;;;;-145.69;57.48;71418.31;5053532;28;20199;-81
2022/07/09 08:03:23;;;;;;;4.90;1.13;;;;;;;-145.69;59.41;71454.13;5053695;28;20217;-80
2022/07/09 08:05:49;;;;;;;5.63;1.35;;;;;;;-145.69;63.06;71489.94;5053738;28;20210;-81
2022/07/09 08:08:18;;;;;;;4.28;1.10;;;;;;;-145.69;60.61;71470.06;5053621;28;20657;-80
2022/07/09 08:10:44;;;;;;;5.68;1.30;;;;;;;-145.69;59.38;71454.13;5053683;28;20531;-82
2022/07/09 08:13:13;;;;;;;6.13;1.50;;;;;;;-145.69;61.06;71458.09;5053748;28;20234;-80
2022/07/09 08:15:39;;;;;;;7.88;1.48;;;;;;;-145.69;60.95;71485.97;5053701;28;20200;-79
2022/07/09 08:18:08;;;;;;;4.47;1.35;;;;;;;-145.69;62.01;71462.09;5058305;28;20649;-79
2022/07/09 08:20:36;;;;;;;6.10;1.33;;;;;;;-145.69;60.67;71428.25;5073508;28;20301;-78
2022/07/09 08:23:03;;;;;;;7.38;1.45;;;;;;;-145.69;61.69;71386.47;5073269;28;20206;-80
2022/07/09 08:25:29;;;;;;;4.47;1.55;;;;;;;-145.69;61.65;71370.56;5072968;28;20199;-79
2022/07/09 08:27:56;;;;;;;3.13;1.33;;;;;;;-145.69;58.48;71366.56;5073134;28;20187;-78
2022/07/09 08:30:24;;;;;;;3.58;1.02;;;;;;;-145.69;55.31;71404.38;5073278;28;20227;-78
2022/07/09 08:32:50;;;;;;;4.28;1.42;;;;;;;-145.69;57.67;71426.28;5072693;28;20841;-78
2022/07/09 08:35:16;;;;;;;3.15;1.17;;;;;;;-145.69;58.74;71410.34;5072896;28;20194;-76
2022/07/09 08:37:43;;;;;;;4.60;1.33;;;;;;;-145.69;57.60;71370.56;5073205;28;20203;-79
2022/07/09 08:40:10;;;;;;;4.18;1.23;;;;;;;-145.69;59.05;71348.66;5073273;28;20202;-77
2022/07/09 08:42:37;;;;;;;4.18;1.00;;;;;;;-145.69;55.56;71382.50;5073518;28;20207;-78
2022/07/09 08:45:06;;;;;;;4.15;1.20;;;;;;;-145.69;57.25;71384.47;5073072;28;20557;-77
2022/07/09 08:47:35;;;;;;;4.97;1.20;;;;;;;-145.69;56.28;71384.47;5072681;28;20202;-77
2022/07/09 08:50:02;;;;;;;4.95;1.55;;;;;;;-145.69;56.40;71362.59;5071842;28;20249;-77
2022/07/09 08:52:29;;;;;;;8.25;1.45;;;;;;;-145.69;59.39;71346.69;5072907;28;20693;-78
2022/07/09 08:54:56;;;;;;;4.05;1.20;;;;;;;-145.69;54.42;71350.66;5073027;28;20205;-77
2022/07/09 08:57:22;;;;;;;3.67;1.52;;;;;;;-145.69;56.69;71366.56;5073086;28;20672;-77
2022/07/09 08:59:49;;;;;;;5.57;1.23;;;;;;;-145.69;56.78;71340.72;5072830;28;20205;-77
2022/07/09 09:02:19;;;;;;;5.22;0.98;;;;;;;-145.69;56.22;71328.78;5072978;28;20249;-75
2022/07/09 09:04:47;;;;;;;4.65;1.27;;;;;;;-145.69;54.51;71304.91;5065802;28;20752;-74
2022/07/09 09:07:15;;;;;;;3.70;1.10;;;;;;;-145.69;56.62;71314.84;5072965;28;20199;-76
2022/07/09 09:09:42;;;;;;;5.67;1.10;;;;;;;-145.69;54.23;71314.84;5072706;28;20442;-79
2022/07/09 09:12:10;;;;;;;2.00;1.17;;;;;;;-145.69;57.82;71316.84;5072775;28;20258;-76
2022/07/09 09:14:36;;;;;;;4.70;1.20;;;;;;;-145.69;56.90;71300.91;5060649;28;20210;-78
2022/07/09 09:17:05;;;;;;;6.85;1.35;;;;;;;-145.69;57.82;71306.88;5063235;28;20204;-77
2022/07/09 09:19:32;;;;;;;4.15;1.35;;;;;;;-145.69;55.32;71306.88;5053098;28;20207;-78
2022/07/09 09:21:59;;;;;;;4.43;1.23;;;;;;;-145.69;55.19;71304.91;5052583;28;20204;-78
2022/07/09 09:24:27;;;;;;;6.05;1.17;;;;;;;-145.69;56.52;71346.69;5059240;28;20203;-77
2022/07/09 09:26:57;;;;;;;5.80;1.30;;;;;;;-145.69;55.29;71322.81;5052683;28;20253;-77
2022/07/09 09:29:23;;;;;;;4.53;1.45;;;;;;;-145.69;55.14;71300.91;5052636;28;20214;-76
2022/07/09 09:31:50;;;;;;;5.28;1.30;;;;;;;-145.69;60.94;71233.25;5052419;28;20293;-78
2022/07/09 09:34:18;;;;;;;2.47;1.08;;;;;;;-145.69;57.43;71171.56;5052939;28;20250;-77
2022/07/09 09:36:46;;;;;;;3.00;1.13;;;;;;;-145.69;52.54;71157.66;5052586;28;20296;-77
2022/07/09 09:39:16;;;;;;;4.75;1.20;;;;;;;-145.69;54.41;71151.69;5052245;28;20210;-75
2022/07/09 09:41:45;;;;;;;4.60;1.02;;;;;;;-145.69;52.97;71181.53;5052580;28;20199;-78
2022/07/09 09:44:14;;;;;;;4.32;1.02;;;;;;;-145.69;59.41;71119.84;5053315;28;20213;-78
2022/07/09 09:46:42;;;;;;;7.10;1.42;;;;;;;-145.69;54.09;71163.63;5067838;28;20207;-76
2022/07/09 09:49:10;;;;;;;4.57;1.55;;;;;;;-145.69;51.61;71183.50;5072191;28;20284;-78
2022/07/09 09:51:39;;;;;;;2.38;1.00;;;;;;;-145.69;53.59;71183.50;5072348;28;20260;-77
2022/07/09 09:54:06;;;;;;;5.32;1.17;;;;;;;-145.69;55.13;71163.63;5072424;28;20210;-79
2022/07/09 09:56:34;;;;;;;2.83;1.10;;;;;;;-145.69;56.94;71064.13;5072420;28;20225;-78
2022/07/09 09:59:01;;;;;;;3.78;1.08;;;;;;;-145.69;50.39;71056.16;5072418;28;20238;-79
2022/07/09 10:01:29;;;;;;;4.30;1.08;;;;;;;-145.69;50.14;71088.00;5073475;28;20202;-79
2022/07/09 10:03:56;;;;;;;3.35;1.10;;;;;;;-145.69;52.07;71095.97;5076286;28;20238;-78
2022/07/09 10:06:23;;;;;;;4.63;1.15;;;;;;;-145.69;49.53;71131.78;5075748;28;20198;-78
2022/07/09 10:08:50;;;;;;;3.72;1.13;;;;;;;-145.69;49.90;71117.84;5076043;28;20206;-79
2022/07/09 10:11:16;;;;;;;3.08;1.38;;;;;;;-145.69;50.45;71139.75;5075962;28;20198;-79
2022/07/09 10:13:52;;;;;;;4.68;1.20;;;;;;;-145.69;53.12;71131.78;5076078;28;20226;-79
2022/07/09 10:16:19;;;;;;;5.03;1.30;;;;;;;-145.69;53.80;71137.75;5075963;28;20198;-79
2022/07/09 10:18:52;;;;;;;3.72;1.05;;;;;;;-145.69;52.15;71139.75;5075513;28;20199;-79
2022/07/09 10:21:18;;;;;;;4.78;1.67;;;;;;;-145.69;51.79;71103.94;5075895;28;20202;-79
2022/07/09 10:23:50;;;;;;;2.58;1.00;;;;;;;-145.69;51.15;71060.16;5075733;28;20198;-79
2022/07/09 10:26:16;;;;;;;4.70;1.10;;;;;;;-145.69;49.95;71076.06;5076018;28;20248;-77
2022/07/09 10:28:43;;;;;;;4.22;1.42;;;;;;;-145.69;53.98;71024.34;5075930;28;20206;-77
2022/07/09 10:31:12;;;;;;;3.85;1.10;;;;;;;-145.69;50.36;70966.63;5075831;28;20199;-77
2022/07/09 10:33:49;;;;;;;6.25;1.30;;;;;;;-145.69;49.55;70980.56;5075594;28;20222;-78
2022/07/09 10:36:17;;;;;;;3.00;1.00;;;;;;;-145.69;48.15;70932.81;5074979;28;20221;-78
2022/07/09 10:38:55;;;;;;;2.63;1.33;;;;;;;-145.69;50.83;70924.84;5075729;28;20207;-77
2022/07/09 10:41:24;;;;;;;3.28;1.00;;;;;;;-145.69;52.04;70994.50;5075553;28;20202;-77
2022/07/09 10:43:55;;;;;;;3.85;1.15;;;;;;;-145.69;49.90;70946.75;5075363;28;20289;-77
2022/07/09 10:46:26;;;;;;;8.48;1.30;;;;;;;-145.69;48.24;70946.75;5075467;28;20290;-78
2022/07/09 10:48:55;;;;;;;3.08;0.82;;;;;;;-145.69;47.48;70988.53;5075052;28;20254;-78
2022/07/09 10:51:23;;;;;;;2.88;1.15;;;;;;;-145.69;48.32;70986.53;5075405;28;20568;-76
2022/07/09 10:53:50;;;;;;;4.22;0.98;;;;;;;-145.69;47.59;70986.53;5075037;28;20330;-79
2022/07/09 10:56:18;;;;;;;5.78;1.17;;;;;;;-145.69;46.98;71060.16;5075009;28;20205;-79
2022/07/09 10:58:51;;;;;;;0.93;0.82;;;;;;;-145.69;47.17;71038.25;5072393;28;20202;-79
2022/07/09 11:01:25;;;;;;;5.97;1.40;;;;;;;-145.69;45.76;71070.09;5075105;28;20592;-79
2022/07/09 11:03:52;;;;;;;15.65;2.25;;;;;;;-145.69;46.96;71084.03;5074711;28;20252;-79
2022/07/09 11:06:18;;;;;;;3.30;1.15;;;;;;;-145.69;49.92;71040.25;5074802;28;20565;-77
2022/07/09 11:08:47;;;;;;;3.00;1.10;;;;;;;-145.69;50.29;70996.47;5074996;28;20206;-77
2022/07/09 11:11:21;;;;;;;5.88;1.00;;;;;;;-145.69;50.01;70928.84;5075055;28;20198;-76
2022/07/09 11:14:02;;;;;;;2.45;0.82;;;;;;;-145.69;46.53;70946.75;5073832;28;20237;-77
2022/07/09 11:16:30;;;;;;;2.47;0.80;;;;;;;-145.69;46.13;70932.81;5062462;28;20196;-78
2022/07/09 11:18:57;;;;;;;3.35;1.05;;;;;;;-145.69;49.86;70944.75;5054883;28;20207;-77
2022/07/09 11:21:24;;;;;;;3.58;0.90;;;;;;;-145.69;49.60;70881.09;5054846;28;20203;-77